createdAt,value
2019-03-21T00:00:49.452Z,11.15
2019-03-21T00:01:48.094Z,11.15
2019-03-21T00:02:48.021Z,11.10
2019-03-21T00:03:47.998Z,11.20
2019-03-21T00:04:47.980Z,11.10
2019-03-21T00:05:48.016Z,11.12
2019-03-21T00:06:47.957Z,11.20
2019-03-21T00:07:47.917Z,11.19
2019-03-21T00:08:47.896Z,11.12
2019-03-21T00:09:47.900Z,11.10
2019-03-21T00:10:47.901Z,11.12
2019-03-21T00:11:47.828Z,11.08
2019-03-21T00:12:47.870Z,11.07
2019-03-21T00:13:47.791Z,11.04
2019-03-21T00:14:47.768Z,11.07
2019-03-21T00:15:47.748Z,11.07
2019-03-21T00:16:47.737Z,11.02
2019-03-21T00:17:47.731Z,11.02
2019-03-21T00:18:47.700Z,11.04
2019-03-21T00:19:47.709Z,11.04
2019-03-21T00:20:47.705Z,11.05
2019-03-21T00:21:47.694Z,11.05
2019-03-21T00:22:47.686Z,11.01
2019-03-21T00:23:47.585Z,11.01
2019-03-21T00:24:47.596Z,11.02
2019-03-21T00:25:47.535Z,11.05
2019-03-21T00:26:47.536Z,11.07
2019-03-21T00:27:47.504Z,11.01
2019-03-21T00:28:47.471Z,11.02
2019-03-21T00:29:47.464Z,11.05
2019-03-21T00:30:47.419Z,10.95
2019-03-21T00:31:47.395Z,11.05
2019-03-21T00:32:47.430Z,11.01
2019-03-21T00:33:47.373Z,11.12
2019-03-21T00:34:47.364Z,11.01
2019-03-21T00:35:47.308Z,11.04
2019-03-21T00:36:47.288Z,11.08
2019-03-21T00:37:47.276Z,11.10
2019-03-21T00:38:47.244Z,11.01
2019-03-21T00:39:47.224Z,11.02
2019-03-21T00:40:47.204Z,11.01
2019-03-21T00:41:47.196Z,11.02
2019-03-21T00:42:47.159Z,11.00
2019-03-21T00:43:47.173Z,11.01
2019-03-21T00:44:47.113Z,10.98
2019-03-21T00:45:47.124Z,11.04
2019-03-21T00:46:47.071Z,11.01
2019-03-21T00:47:47.071Z,11.07
2019-03-21T00:48:47.034Z,11.01
2019-03-21T00:49:47.006Z,11.04
2019-03-21T00:50:47.006Z,11.05
2019-03-21T00:51:46.962Z,10.98
2019-03-21T00:52:46.943Z,11.07
2019-03-21T00:53:46.918Z,11.07
2019-03-21T00:54:46.912Z,11.08
2019-03-21T00:55:46.884Z,11.02
2019-03-21T00:56:46.857Z,11.02
2019-03-21T00:57:46.849Z,10.97
2019-03-21T00:58:46.826Z,11.01
2019-03-21T00:59:46.794Z,11.02
2019-03-21T01:00:46.767Z,11.12
2019-03-21T01:01:46.743Z,11.07
2019-03-21T01:02:46.722Z,11.00
2019-03-21T01:03:46.713Z,11.01
2019-03-21T01:04:46.687Z,11.05
2019-03-21T01:05:46.665Z,11.00
2019-03-21T01:06:46.638Z,11.00
2019-03-21T01:07:46.634Z,10.92
2019-03-21T01:08:46.595Z,10.95
2019-03-21T01:09:46.572Z,10.95
2019-03-21T01:10:46.569Z,10.94
2019-03-21T01:11:46.533Z,10.86
2019-03-21T01:12:46.507Z,10.94
2019-03-21T01:13:46.507Z,10.83
2019-03-21T01:14:46.462Z,10.87
2019-03-21T01:15:46.461Z,10.86
2019-03-21T01:16:46.417Z,10.84
2019-03-21T01:17:46.397Z,10.84
2019-03-21T01:18:46.375Z,10.83
2019-03-21T01:19:46.355Z,10.87
2019-03-21T01:20:46.346Z,10.89
2019-03-21T01:21:46.312Z,10.87
2019-03-21T01:22:46.287Z,10.84
2019-03-21T01:23:46.288Z,10.84
2019-03-21T01:24:46.245Z,10.89
2019-03-21T01:25:46.235Z,10.83
2019-03-21T01:26:46.235Z,10.87
2019-03-21T01:27:46.187Z,10.94
2019-03-21T01:28:46.179Z,10.86
2019-03-21T01:29:46.135Z,10.86
2019-03-21T01:30:46.117Z,10.87
2019-03-21T01:31:46.090Z,10.89
2019-03-21T01:32:46.073Z,10.82
2019-03-21T01:33:46.055Z,10.84
2019-03-21T01:34:46.028Z,10.84
2019-03-21T01:35:46.012Z,10.90
2019-03-21T01:36:46.088Z,10.77
2019-03-21T01:37:45.969Z,10.80
2019-03-21T01:38:45.937Z,10.80
2019-03-21T01:39:45.947Z,10.80
2019-03-21T01:40:45.892Z,10.75
2019-03-21T01:41:45.870Z,10.77
2019-03-21T01:42:45.877Z,10.82
2019-03-21T01:43:45.832Z,10.80
2019-03-21T01:44:45.807Z,10.72
2019-03-21T01:45:45.782Z,10.72
2019-03-21T01:46:45.771Z,10.72
2019-03-21T01:47:45.758Z,10.76
2019-03-21T01:48:45.722Z,10.75
2019-03-21T01:49:45.694Z,10.75
2019-03-21T01:50:45.692Z,10.75
2019-03-21T01:51:45.654Z,10.71
2019-03-21T01:52:45.635Z,10.71
2019-03-21T01:53:45.609Z,10.79
2019-03-21T01:54:45.593Z,10.75
2019-03-21T01:55:45.565Z,10.68
2019-03-21T01:56:45.546Z,10.65
2019-03-21T01:57:45.518Z,10.71
2019-03-21T01:58:45.496Z,10.79
2019-03-21T01:59:45.503Z,10.72
2019-03-21T02:00:45.453Z,10.71
2019-03-21T02:01:45.445Z,10.58
2019-03-21T02:02:45.410Z,10.58
2019-03-21T02:03:45.398Z,10.58
2019-03-21T02:04:45.364Z,10.58
2019-03-21T02:05:45.347Z,10.58
2019-03-21T02:06:45.322Z,10.68
2019-03-21T02:07:45.319Z,10.68
2019-03-21T02:08:45.288Z,10.59
2019-03-21T02:09:45.255Z,10.59
2019-03-21T02:10:45.268Z,10.58
2019-03-21T02:11:45.205Z,10.57
2019-03-21T02:12:45.192Z,10.59
2019-03-21T02:13:45.173Z,10.61
2019-03-21T02:14:51.976Z,10.64
2019-03-21T02:15:46.480Z,10.58
2019-03-21T02:16:45.110Z,10.61
2019-03-21T02:17:45.096Z,10.57
2019-03-21T02:18:45.077Z,10.65
2019-03-21T02:19:45.028Z,10.61
2019-03-21T02:20:45.019Z,10.61
2019-03-21T02:21:44.995Z,10.67
2019-03-21T02:22:44.983Z,10.58
2019-03-21T02:23:44.941Z,10.57
2019-03-21T02:24:44.917Z,10.61
2019-03-21T02:25:44.923Z,10.69
2019-03-21T02:26:44.878Z,10.65
2019-03-21T02:27:44.861Z,10.71
2019-03-21T02:28:44.830Z,10.68
2019-03-21T02:29:44.816Z,10.75
2019-03-21T02:30:44.817Z,10.79
2019-03-21T02:31:44.762Z,10.71
2019-03-21T02:32:44.762Z,10.72
2019-03-21T02:33:44.761Z,10.75
2019-03-21T02:34:44.711Z,10.69
2019-03-21T02:35:44.679Z,10.71
2019-03-21T02:36:44.671Z,10.65
2019-03-21T02:37:44.632Z,10.72
2019-03-21T02:38:44.614Z,10.72
2019-03-21T02:39:58.181Z,10.67
2019-03-21T02:40:44.581Z,10.65
2019-03-21T02:41:44.564Z,10.61
2019-03-21T02:42:44.549Z,10.55
2019-03-21T02:43:44.500Z,10.61
2019-03-21T02:44:44.526Z,10.61
2019-03-21T02:45:44.467Z,10.61
2019-03-21T02:46:44.436Z,10.61
2019-03-21T02:47:44.412Z,10.61
2019-03-21T02:48:44.390Z,10.55
2019-03-21T02:49:44.369Z,10.67
2019-03-21T02:50:44.387Z,10.59
2019-03-21T02:51:44.327Z,10.55
2019-03-21T02:52:44.303Z,10.55
2019-03-21T02:53:44.299Z,10.59
2019-03-21T02:54:44.258Z,10.64
2019-03-21T02:55:44.237Z,10.53
2019-03-21T02:56:44.213Z,10.61
2019-03-21T02:57:44.193Z,10.53
2019-03-21T02:58:44.171Z,10.64
2019-03-21T02:59:44.154Z,10.57
2019-03-21T03:00:44.125Z,10.67
2019-03-21T03:01:44.103Z,10.59
2019-03-21T03:02:44.081Z,10.49
2019-03-21T03:03:44.070Z,10.51
2019-03-21T03:04:44.040Z,10.64
2019-03-21T03:05:44.015Z,10.53
2019-03-21T03:06:44.035Z,10.51
2019-03-21T03:07:43.975Z,10.57
2019-03-21T03:08:43.968Z,10.51
2019-03-21T03:09:43.961Z,10.53
2019-03-21T03:10:43.906Z,10.53
2019-03-21T03:11:43.881Z,10.49
2019-03-21T03:12:43.893Z,10.55
2019-03-21T03:13:43.843Z,10.49
2019-03-21T03:14:43.825Z,10.48
2019-03-21T03:15:43.798Z,10.46
2019-03-21T03:16:43.849Z,10.49
2019-03-21T03:17:43.749Z,10.51
2019-03-21T03:18:43.729Z,10.49
2019-03-21T03:19:43.735Z,10.43
2019-03-21T03:20:43.685Z,10.45
2019-03-21T03:21:43.661Z,10.55
2019-03-21T03:22:43.643Z,10.55
2019-03-21T03:23:43.618Z,10.53
2019-03-21T03:24:43.609Z,10.48
2019-03-21T03:25:43.573Z,10.45
2019-03-21T03:26:43.583Z,10.49
2019-03-21T03:27:43.527Z,10.43
2019-03-21T03:28:43.505Z,10.48
2019-03-21T03:29:43.515Z,10.51
2019-03-21T03:30:43.463Z,10.53
2019-03-21T03:31:43.443Z,10.53
2019-03-21T03:32:43.416Z,10.48
2019-03-21T03:33:43.393Z,10.49
2019-03-21T03:34:43.372Z,10.42
2019-03-21T03:35:43.350Z,10.49
2019-03-21T03:36:43.338Z,10.48
2019-03-21T03:37:43.312Z,10.43
2019-03-21T03:38:43.288Z,10.43
2019-03-21T03:39:43.302Z,10.57
2019-03-21T03:40:43.263Z,10.51
2019-03-21T03:41:43.225Z,10.49
2019-03-21T03:42:43.207Z,10.46
2019-03-21T03:43:43.184Z,10.49
2019-03-21T03:44:43.163Z,10.45
2019-03-21T03:45:43.130Z,10.53
2019-03-21T03:46:43.125Z,10.46
2019-03-21T03:47:43.114Z,10.53
2019-03-21T03:48:43.086Z,10.51
2019-03-21T03:49:43.063Z,10.46
2019-03-21T03:50:43.018Z,10.46
2019-03-21T03:51:42.996Z,10.53
2019-03-21T03:52:42.975Z,10.46
2019-03-21T03:53:43.000Z,10.48
2019-03-21T03:54:42.939Z,10.41
2019-03-21T03:55:42.909Z,10.43
2019-03-21T03:56:42.890Z,10.46
2019-03-21T03:57:42.869Z,10.42
2019-03-21T03:58:42.838Z,10.41
2019-03-21T03:59:42.819Z,10.38
2019-03-21T04:00:42.795Z,10.39
2019-03-21T04:01:42.770Z,10.42
2019-03-21T04:02:42.774Z,10.41
2019-03-21T04:03:42.811Z,10.39
2019-03-21T04:04:42.708Z,10.39
2019-03-21T04:05:42.687Z,10.39
2019-03-21T04:06:42.663Z,10.38
2019-03-21T04:07:42.654Z,10.38
2019-03-21T04:08:42.679Z,10.38
2019-03-21T04:09:42.596Z,10.38
2019-03-21T04:10:42.571Z,10.38
2019-03-21T04:11:42.549Z,10.31
2019-03-21T04:12:42.535Z,10.41
2019-03-21T04:13:42.508Z,10.36
2019-03-21T04:14:42.487Z,10.36
2019-03-21T04:15:52.518Z,10.34
2019-03-21T04:16:42.436Z,10.31
2019-03-21T04:17:42.413Z,10.34
2019-03-21T04:18:42.406Z,10.36
2019-03-21T04:19:42.382Z,10.39
2019-03-21T04:20:42.382Z,10.36
2019-03-21T04:21:42.323Z,10.36
2019-03-21T04:22:42.301Z,10.36
2019-03-21T04:23:42.280Z,10.33
2019-03-21T04:24:42.256Z,10.38
2019-03-21T04:25:42.235Z,10.33
2019-03-21T04:26:42.213Z,10.38
2019-03-21T04:27:42.211Z,10.42
2019-03-21T04:28:42.169Z,10.36
2019-03-21T04:29:42.143Z,10.46
2019-03-21T04:30:42.123Z,10.33
2019-03-21T04:31:42.099Z,10.33
2019-03-21T04:32:42.079Z,10.38
2019-03-21T04:33:42.055Z,10.36
2019-03-21T04:34:42.033Z,10.38
2019-03-21T04:35:42.013Z,10.34
2019-03-21T04:36:41.995Z,10.34
2019-03-21T04:37:41.965Z,10.34
2019-03-21T04:38:41.951Z,10.31
2019-03-21T04:39:41.924Z,10.25
2019-03-21T04:40:42.111Z,10.33
2019-03-21T04:41:41.947Z,10.30
2019-03-21T04:42:41.854Z,10.36
2019-03-21T04:43:41.832Z,10.27
2019-03-21T04:44:44.344Z,10.27
2019-03-21T04:45:41.786Z,10.39
2019-03-21T04:46:41.764Z,10.23
2019-03-21T04:47:41.740Z,10.23
2019-03-21T04:48:41.719Z,10.31
2019-03-21T04:49:41.695Z,10.27
2019-03-21T04:50:41.676Z,10.31
2019-03-21T04:51:41.654Z,10.25
2019-03-21T04:52:41.633Z,10.27
2019-03-21T04:53:41.613Z,10.30
2019-03-21T04:54:41.582Z,10.33
2019-03-21T04:55:41.713Z,10.30
2019-03-21T04:56:41.540Z,10.27
2019-03-21T04:57:41.516Z,10.36
2019-03-21T04:58:41.499Z,10.28
2019-03-21T04:59:41.539Z,10.30
2019-03-21T05:00:41.448Z,10.27
2019-03-21T05:01:41.425Z,10.23
2019-03-21T05:02:41.404Z,10.25
2019-03-21T05:03:41.380Z,10.13
2019-03-21T05:04:41.358Z,10.21
2019-03-21T05:05:41.339Z,10.15
2019-03-21T05:06:41.314Z,10.13
2019-03-21T05:07:41.289Z,10.03
2019-03-21T05:08:41.269Z,10.03
2019-03-21T05:09:41.249Z,10.00
2019-03-21T05:10:41.225Z,10.03
2019-03-21T05:11:41.198Z,10.02
2019-03-21T05:12:41.177Z,10.05
2019-03-21T05:13:41.153Z,10.03
2019-03-21T05:14:41.136Z,10.13
2019-03-21T05:15:41.110Z,10.00
2019-03-21T05:16:41.097Z,10.03
2019-03-21T05:17:41.065Z,9.95
2019-03-21T05:18:41.092Z,10.00
2019-03-21T05:19:41.157Z,10.00
2019-03-21T05:20:41.142Z,9.97
2019-03-21T05:21:40.977Z,10.05
2019-03-21T05:22:40.948Z,10.00
2019-03-21T05:23:40.926Z,10.00
2019-03-21T05:24:40.968Z,10.06
2019-03-21T05:25:40.879Z,10.00
2019-03-21T05:26:40.881Z,9.97
2019-03-21T05:27:40.836Z,10.05
2019-03-21T05:28:40.810Z,10.00
2019-03-21T05:29:40.787Z,10.06
2019-03-21T05:30:40.766Z,9.94
2019-03-21T05:31:40.741Z,9.90
2019-03-21T05:32:40.721Z,9.92
2019-03-21T05:33:40.696Z,9.92
2019-03-21T05:34:40.673Z,9.91
2019-03-21T05:35:40.650Z,9.90
2019-03-21T05:36:40.627Z,9.85
2019-03-21T05:37:40.646Z,9.91
2019-03-21T05:38:40.583Z,9.91
2019-03-21T05:39:40.558Z,9.90
2019-03-21T05:40:40.540Z,9.90
2019-03-21T05:41:40.513Z,9.88
2019-03-21T05:42:40.490Z,9.88
2019-03-21T05:43:40.467Z,9.85
2019-03-21T05:44:40.443Z,9.92
2019-03-21T05:45:40.420Z,9.84
2019-03-21T05:46:40.397Z,9.76
2019-03-21T05:47:40.375Z,9.85
2019-03-21T05:48:40.353Z,9.77
2019-03-21T05:49:40.330Z,9.72
2019-03-21T05:50:40.305Z,9.82
2019-03-21T05:51:40.291Z,9.82
2019-03-21T05:52:40.261Z,9.76
2019-03-21T05:53:40.241Z,9.81
2019-03-21T05:54:40.213Z,9.70
2019-03-21T05:55:40.189Z,9.72
2019-03-21T05:56:40.166Z,9.67
2019-03-21T05:57:40.147Z,9.69
2019-03-21T05:58:40.120Z,9.67
2019-03-21T05:59:40.097Z,9.67
2019-03-21T06:00:40.074Z,9.63
2019-03-21T06:01:40.053Z,9.67
2019-03-21T06:02:40.028Z,9.62
2019-03-21T06:03:40.007Z,9.64
2019-03-21T06:04:39.980Z,9.67
2019-03-21T06:05:39.958Z,9.67
2019-03-21T06:06:39.934Z,9.66
2019-03-21T06:07:39.910Z,9.63
2019-03-21T06:08:39.895Z,9.67
2019-03-21T06:09:39.864Z,9.63
2019-03-21T06:10:39.841Z,9.56
2019-03-21T06:11:39.827Z,9.58
2019-03-21T06:12:39.792Z,9.51
2019-03-21T06:13:39.776Z,9.63
2019-03-21T06:14:39.748Z,9.55
2019-03-21T06:15:39.725Z,9.52
2019-03-21T06:16:39.700Z,9.48
2019-03-21T06:17:39.677Z,9.48
2019-03-21T06:18:39.654Z,9.54
2019-03-21T06:19:39.638Z,9.54
2019-03-21T06:20:39.611Z,9.47
2019-03-21T06:21:39.583Z,9.51
2019-03-21T06:22:39.566Z,9.44
2019-03-21T06:23:39.537Z,9.44
2019-03-21T06:24:39.512Z,9.42
2019-03-21T06:25:39.490Z,9.47
2019-03-21T06:26:39.474Z,9.48
2019-03-21T06:27:39.446Z,9.49
2019-03-21T06:28:39.428Z,9.44
2019-03-21T06:29:39.399Z,9.54
2019-03-21T06:30:39.375Z,9.54
2019-03-21T06:31:39.352Z,9.45
2019-03-21T06:32:39.325Z,9.44
2019-03-21T06:33:39.304Z,9.40
2019-03-21T06:34:39.282Z,9.47
2019-03-21T06:35:39.256Z,9.52
2019-03-21T06:36:39.235Z,9.52
2019-03-21T06:37:39.228Z,9.40
2019-03-21T06:38:39.187Z,9.51
2019-03-21T06:39:39.173Z,9.47
2019-03-21T06:40:39.140Z,9.49
2019-03-21T06:41:39.117Z,9.48
2019-03-21T06:42:39.230Z,9.48
2019-03-21T06:43:39.075Z,9.48
2019-03-21T06:44:39.045Z,9.49
2019-03-21T06:45:47.580Z,9.49
2019-03-21T06:46:48.860Z,9.44
2019-03-21T06:47:38.974Z,9.48
2019-03-21T06:48:38.954Z,9.51
2019-03-21T06:49:38.930Z,9.49
2019-03-21T06:50:38.905Z,9.55
2019-03-21T06:51:38.880Z,9.58
2019-03-21T06:52:38.859Z,9.52
2019-03-21T06:53:38.839Z,9.59
2019-03-21T06:54:38.815Z,9.52
2019-03-21T06:55:38.788Z,9.64
2019-03-21T06:56:38.765Z,9.64
2019-03-21T06:57:38.741Z,9.67
2019-03-21T06:58:38.721Z,9.70
2019-03-21T06:59:38.694Z,9.67
2019-03-21T07:00:38.670Z,9.69
2019-03-21T07:01:38.647Z,9.73
2019-03-21T07:02:38.624Z,9.80
2019-03-21T07:03:38.601Z,9.80
2019-03-21T07:04:38.590Z,9.81
2019-03-21T07:05:38.554Z,9.82
2019-03-21T07:06:38.535Z,9.85
2019-03-21T07:07:38.509Z,9.82
2019-03-21T07:08:38.482Z,9.87
2019-03-21T07:09:38.484Z,9.81
2019-03-21T07:10:38.437Z,9.90
2019-03-21T07:11:38.414Z,9.87
2019-03-21T07:12:38.393Z,9.92
2019-03-21T07:13:38.367Z,9.92
2019-03-21T07:14:38.342Z,9.95
2019-03-21T07:15:38.332Z,9.91
2019-03-21T07:16:38.298Z,9.91
2019-03-21T07:17:38.277Z,9.91
2019-03-21T07:18:38.260Z,9.91
2019-03-21T07:19:38.230Z,9.97
2019-03-21T07:20:38.202Z,10.02
2019-03-21T07:21:38.197Z,10.03
2019-03-21T07:22:38.651Z,10.00
2019-03-21T07:23:38.135Z,10.06
2019-03-21T07:24:38.107Z,10.09
2019-03-21T07:25:38.086Z,10.06
2019-03-21T07:26:38.066Z,10.00
2019-03-21T07:27:38.037Z,10.00
2019-03-21T07:28:38.716Z,10.09
2019-03-21T07:29:37.993Z,10.06
2019-03-21T07:30:37.979Z,10.20
2019-03-21T07:31:37.948Z,10.18
2019-03-21T07:32:37.928Z,10.18
2019-03-21T07:33:37.910Z,10.21
2019-03-21T07:34:37.878Z,10.18
2019-03-21T07:35:37.871Z,10.25
2019-03-21T07:36:37.839Z,10.36
2019-03-21T07:37:37.806Z,10.39
2019-03-21T07:38:37.787Z,10.33
2019-03-21T07:39:37.760Z,10.31
2019-03-21T07:40:37.740Z,10.30
2019-03-21T07:41:37.717Z,10.33
2019-03-21T07:42:37.697Z,10.41
2019-03-21T07:43:37.669Z,10.34
2019-03-21T07:44:37.645Z,10.38
2019-03-21T07:45:37.625Z,10.51
2019-03-21T07:46:37.599Z,10.51
2019-03-21T07:47:37.575Z,10.48
2019-03-21T07:48:37.554Z,10.55
2019-03-21T07:49:37.537Z,10.53
2019-03-21T07:50:37.520Z,10.51
2019-03-21T07:51:37.487Z,10.59
2019-03-21T07:52:37.469Z,10.58
2019-03-21T07:53:37.439Z,10.65
2019-03-21T07:54:37.417Z,10.69
2019-03-21T07:55:37.485Z,10.75
2019-03-21T07:56:37.372Z,10.75
2019-03-21T07:57:37.353Z,10.72
2019-03-21T07:58:37.331Z,10.72
2019-03-21T07:59:37.304Z,10.77
2019-03-21T08:00:37.281Z,10.77
2019-03-21T08:01:37.262Z,10.77
2019-03-21T08:02:37.245Z,10.69
2019-03-21T08:03:37.215Z,10.77
2019-03-21T08:04:37.188Z,10.82
2019-03-21T08:05:40.608Z,10.87
2019-03-21T08:06:37.154Z,10.94
2019-03-21T08:07:37.121Z,11.00
2019-03-21T08:08:37.095Z,11.00
2019-03-21T08:09:37.146Z,11.10
2019-03-21T08:10:37.058Z,11.08
2019-03-21T08:11:37.031Z,11.13
2019-03-21T08:12:37.006Z,11.19
2019-03-21T08:13:36.983Z,11.22
2019-03-21T08:14:36.961Z,11.30
2019-03-21T08:15:37.985Z,11.26
2019-03-21T08:16:36.916Z,11.26
2019-03-21T08:17:36.901Z,11.30
2019-03-21T08:18:36.876Z,11.38
2019-03-21T08:19:36.846Z,11.34
2019-03-21T08:20:36.826Z,11.41
2019-03-21T08:21:36.802Z,11.34
2019-03-21T08:22:36.783Z,11.34
2019-03-21T08:23:36.759Z,11.27
2019-03-21T08:24:36.735Z,11.49
2019-03-21T08:25:36.715Z,11.40
2019-03-21T08:26:36.689Z,11.51
2019-03-21T08:27:36.669Z,11.59
2019-03-21T08:28:36.648Z,11.68
2019-03-21T08:29:36.621Z,11.63
2019-03-21T08:30:36.600Z,11.77
2019-03-21T08:31:36.580Z,11.77
2019-03-21T08:32:36.559Z,11.73
2019-03-21T08:33:36.757Z,11.97
2019-03-21T08:34:36.512Z,11.96
2019-03-21T08:35:36.488Z,12.00
2019-03-21T08:36:36.467Z,12.02
2019-03-21T08:37:36.444Z,11.97
2019-03-21T08:38:36.422Z,12.10
2019-03-21T08:39:36.401Z,12.07
2019-03-21T08:40:36.383Z,11.88
2019-03-21T08:41:36.377Z,11.99
2019-03-21T08:42:36.334Z,12.02
2019-03-21T08:43:36.310Z,11.93
2019-03-21T08:44:36.290Z,11.91
2019-03-21T08:45:36.266Z,12.02
2019-03-21T08:46:36.268Z,12.15
2019-03-21T08:47:37.159Z,12.15
2019-03-21T08:48:36.200Z,12.14
2019-03-21T08:49:36.182Z,12.15
2019-03-21T08:50:36.156Z,12.28
2019-03-21T08:51:36.136Z,12.35
2019-03-21T08:52:36.110Z,12.39
2019-03-21T08:53:36.093Z,12.50
2019-03-21T08:54:36.070Z,12.55
2019-03-21T08:55:36.044Z,12.50
2019-03-21T08:56:36.025Z,12.61
2019-03-21T08:57:36.002Z,12.58
2019-03-21T08:58:35.980Z,12.69
2019-03-21T08:59:35.962Z,12.66
2019-03-21T09:00:35.935Z,12.69
2019-03-21T09:01:35.914Z,12.76
2019-03-21T09:02:35.892Z,12.83
2019-03-21T09:03:35.873Z,12.80
2019-03-21T09:04:35.849Z,12.86
2019-03-21T09:05:35.828Z,12.84
2019-03-21T09:06:35.806Z,12.93
2019-03-21T09:07:35.783Z,12.98
2019-03-21T09:08:35.763Z,13.06
2019-03-21T09:09:35.740Z,13.08
2019-03-21T09:10:35.720Z,13.03
2019-03-21T09:11:35.699Z,13.06
2019-03-21T09:12:35.677Z,13.16
2019-03-21T09:13:35.657Z,13.13
2019-03-21T09:14:35.634Z,13.16
2019-03-21T09:15:35.613Z,13.23
2019-03-21T09:16:35.590Z,13.31
2019-03-21T09:17:35.571Z,13.33
2019-03-21T09:18:35.547Z,13.37
2019-03-21T09:19:35.526Z,13.40
2019-03-21T09:20:35.504Z,13.43
2019-03-21T09:21:35.486Z,13.43
2019-03-21T09:22:35.462Z,13.46
2019-03-21T09:23:35.439Z,13.49
2019-03-21T09:24:35.420Z,13.50
2019-03-21T09:25:35.400Z,13.57
2019-03-21T09:26:35.378Z,13.64
2019-03-21T09:27:35.355Z,13.62
2019-03-21T09:28:35.333Z,13.62
2019-03-21T09:29:35.322Z,13.64
2019-03-21T09:30:35.291Z,13.67
2019-03-21T09:31:35.270Z,13.70
2019-03-21T09:32:35.249Z,13.60
2019-03-21T09:33:35.231Z,13.78
2019-03-21T09:34:35.207Z,13.70
2019-03-21T09:35:35.185Z,13.73
2019-03-21T09:36:35.166Z,13.67
2019-03-21T09:37:35.144Z,13.71
2019-03-21T09:38:35.129Z,13.80
2019-03-21T09:39:35.105Z,13.85
2019-03-21T09:40:35.110Z,13.91
2019-03-21T09:41:35.060Z,13.93
2019-03-21T09:42:35.038Z,13.91
2019-03-21T09:43:35.017Z,13.97
2019-03-21T09:44:35.002Z,13.93
2019-03-21T09:45:34.976Z,14.01
2019-03-21T09:46:34.956Z,14.13
2019-03-21T09:47:34.934Z,14.08
2019-03-21T09:48:34.913Z,14.04
2019-03-21T09:49:34.894Z,14.19
2019-03-21T09:50:34.873Z,14.07
2019-03-21T09:51:34.854Z,14.18
2019-03-21T09:52:34.835Z,14.26
2019-03-21T09:53:34.812Z,14.28
2019-03-21T09:54:34.797Z,14.23
2019-03-21T09:55:34.775Z,14.26
2019-03-21T09:56:34.753Z,14.28
2019-03-21T09:57:34.731Z,14.19
2019-03-21T09:58:34.711Z,14.26
2019-03-21T09:59:34.702Z,14.28
2019-03-21T10:00:34.672Z,14.37
2019-03-21T10:01:34.651Z,14.36
2019-03-21T10:02:34.630Z,14.31
2019-03-21T10:03:34.612Z,14.33
2019-03-21T10:04:34.589Z,14.37
2019-03-21T10:05:34.570Z,14.36
2019-03-21T10:06:34.548Z,14.43
2019-03-21T10:07:34.530Z,14.55
2019-03-21T10:08:34.514Z,14.61
2019-03-21T10:09:34.496Z,14.61
2019-03-21T10:10:34.474Z,14.73
2019-03-21T10:11:34.448Z,14.66
2019-03-21T10:12:34.427Z,14.67
2019-03-21T10:13:34.410Z,14.73
2019-03-21T10:14:34.390Z,14.81
2019-03-21T10:15:34.434Z,14.94
2019-03-21T10:16:34.350Z,14.94
2019-03-21T10:17:34.330Z,14.92
2019-03-21T10:18:34.317Z,14.99
2019-03-21T10:19:34.289Z,14.89
2019-03-21T10:20:34.272Z,14.74
2019-03-21T10:21:42.731Z,14.81
2019-03-21T10:22:34.234Z,14.85
2019-03-21T10:23:34.211Z,14.92
2019-03-21T10:24:34.194Z,14.85
2019-03-21T10:25:34.173Z,14.96
2019-03-21T10:26:34.153Z,15.10
2019-03-21T10:27:34.133Z,15.18
2019-03-21T10:28:34.117Z,15.12
2019-03-21T10:29:34.094Z,15.25
2019-03-21T10:30:34.104Z,15.25
2019-03-21T10:31:34.055Z,15.33
2019-03-21T10:32:34.037Z,15.39
2019-03-21T10:33:34.017Z,15.39
2019-03-21T10:34:34.001Z,15.27
2019-03-21T10:35:33.979Z,15.29
2019-03-21T10:36:33.962Z,15.27
2019-03-21T10:37:33.942Z,15.41
2019-03-21T10:38:33.924Z,15.55
2019-03-21T10:39:33.904Z,15.65
2019-03-21T10:40:33.889Z,15.72
2019-03-21T10:41:33.867Z,15.92
2019-03-21T10:42:33.855Z,16.22
2019-03-21T10:43:33.831Z,16.41
2019-03-21T10:44:33.814Z,16.59
2019-03-21T10:45:33.800Z,16.95
2019-03-21T10:46:33.778Z,17.37
2019-03-21T10:47:33.762Z,17.57
2019-03-21T10:48:33.745Z,17.79
2019-03-21T10:49:33.728Z,17.80
2019-03-21T10:50:33.716Z,17.79
2019-03-21T10:51:33.696Z,17.78
2019-03-21T10:52:33.678Z,18.00
2019-03-21T10:53:33.664Z,18.09
2019-03-21T10:54:33.648Z,18.43
2019-03-21T10:55:33.632Z,18.19
2019-03-21T10:56:33.618Z,18.09
2019-03-21T10:57:33.601Z,18.02
2019-03-21T10:58:33.589Z,18.13
2019-03-21T10:59:33.575Z,18.82
2019-03-21T11:00:33.572Z,19.07
2019-03-21T11:01:33.540Z,19.30
2019-03-21T11:02:33.525Z,19.53
2019-03-21T11:03:33.510Z,19.62
2019-03-21T11:04:33.494Z,19.49
2019-03-21T11:05:33.483Z,19.48
2019-03-21T11:06:33.467Z,19.66
2019-03-21T11:07:33.450Z,19.79
2019-03-21T11:08:33.437Z,19.87
2019-03-21T11:09:33.484Z,20.34
2019-03-21T11:10:33.427Z,20.29
2019-03-21T11:11:33.398Z,20.37
2019-03-21T11:12:33.380Z,20.24
2019-03-21T11:13:33.368Z,20.59
2019-03-21T11:14:33.354Z,20.95
2019-03-21T11:15:33.339Z,20.75
2019-03-21T11:16:33.326Z,20.66
2019-03-21T11:17:33.318Z,20.78
2019-03-21T11:18:36.308Z,20.22
2019-03-21T11:19:33.285Z,19.44
2019-03-21T11:20:33.286Z,19.82
2019-03-21T11:21:33.258Z,19.62
2019-03-21T11:22:33.246Z,19.72
2019-03-21T11:23:33.231Z,19.47
2019-03-21T11:24:33.218Z,19.60
2019-03-21T11:25:33.209Z,19.77
2019-03-21T11:26:33.193Z,19.82
2019-03-21T11:27:33.181Z,20.03
2019-03-21T11:28:33.168Z,20.36
2019-03-21T11:29:33.152Z,20.60
2019-03-21T11:30:33.191Z,21.37
2019-03-21T11:31:33.125Z,20.92
2019-03-21T11:32:33.114Z,20.46
2019-03-21T11:33:33.099Z,20.46
2019-03-21T11:34:33.087Z,20.70
2019-03-21T11:35:33.073Z,19.99
2019-03-21T11:36:38.357Z,19.94
2019-03-21T11:37:33.068Z,20.10
2019-03-21T11:38:33.032Z,20.56
2019-03-21T11:39:33.019Z,20.70
2019-03-21T11:40:33.009Z,20.63
2019-03-21T11:41:33.001Z,20.64
2019-03-21T11:42:32.987Z,20.74
2019-03-21T11:43:32.971Z,21.56
2019-03-21T11:44:32.958Z,22.34
2019-03-21T11:45:32.951Z,22.23
2019-03-21T11:46:32.947Z,22.25
2019-03-21T11:47:41.326Z,22.06
2019-03-21T11:48:32.909Z,22.12
2019-03-21T11:49:32.901Z,21.69
2019-03-21T11:50:32.889Z,22.30
2019-03-21T11:51:32.889Z,22.59
2019-03-21T11:52:32.870Z,22.04
2019-03-21T11:53:32.852Z,22.62
2019-03-21T11:54:32.858Z,22.22
2019-03-21T11:55:32.830Z,22.21
2019-03-21T11:56:32.843Z,22.08
2019-03-21T11:57:32.809Z,21.05
2019-03-21T11:58:32.797Z,21.60
2019-03-21T11:59:41.609Z,21.96
2019-03-21T12:00:43.170Z,22.47
2019-03-21T12:01:32.770Z,22.47
2019-03-21T12:02:32.755Z,22.68
2019-03-21T12:03:32.744Z,22.22
2019-03-21T12:04:32.733Z,22.62
2019-03-21T12:05:32.722Z,22.31
2019-03-21T12:06:32.714Z,22.56
2019-03-21T12:07:32.701Z,22.61
2019-03-21T12:08:32.690Z,21.89
2019-03-21T12:09:32.678Z,21.33
2019-03-21T12:10:32.669Z,21.54
2019-03-21T12:11:32.656Z,21.59
2019-03-21T12:12:32.642Z,21.19
2019-03-21T12:13:32.631Z,21.13
2019-03-21T12:14:32.633Z,21.37
2019-03-21T12:15:32.611Z,21.29
2019-03-21T12:16:32.596Z,20.75
2019-03-21T12:17:32.584Z,20.77
2019-03-21T12:18:32.637Z,20.49
2019-03-21T12:19:32.559Z,20.07
2019-03-21T12:20:32.582Z,19.74
2019-03-21T12:21:32.540Z,19.93
2019-03-21T12:22:32.522Z,19.52
2019-03-21T12:23:32.512Z,19.57
2019-03-21T12:24:32.499Z,19.74
2019-03-21T12:25:32.484Z,19.79
2019-03-21T12:26:32.469Z,19.66
2019-03-21T12:27:32.455Z,19.49
2019-03-21T12:28:32.441Z,19.07
2019-03-21T12:29:32.429Z,19.01
2019-03-21T12:30:32.422Z,19.19
2019-03-21T12:31:32.402Z,19.07
2019-03-21T12:32:32.395Z,19.00
2019-03-21T12:33:32.380Z,18.76
2019-03-21T12:34:32.360Z,18.61
2019-03-21T12:35:32.347Z,18.61
2019-03-21T12:36:32.333Z,18.74
2019-03-21T12:37:32.317Z,18.98
2019-03-21T12:38:32.307Z,19.19
2019-03-21T12:39:32.289Z,19.37
2019-03-21T12:40:32.278Z,19.19
2019-03-21T12:41:32.259Z,18.97
2019-03-21T12:42:32.245Z,18.92
2019-03-21T12:43:32.229Z,19.05
2019-03-21T12:44:32.215Z,19.20
2019-03-21T12:45:32.206Z,19.22
2019-03-21T12:46:32.189Z,19.24
2019-03-21T12:47:32.184Z,19.49
2019-03-21T12:48:32.157Z,19.72
2019-03-21T12:49:32.143Z,20.04
2019-03-21T12:50:32.130Z,19.94
2019-03-21T12:51:32.112Z,20.11
2019-03-21T12:52:41.022Z,19.60
2019-03-21T12:53:32.084Z,18.83
2019-03-21T12:54:32.070Z,19.12
2019-03-21T12:55:32.063Z,19.04
2019-03-21T12:56:32.041Z,19.12